sensor_id;sensor_type;location;lat;lon;timestamp;pressure;altitude;pressure_sealevel;temperature;humidity
56894;BME280;43392;50.078;13.704;2024-03-23T00:53:33;96214.41;;;11.98;72.62
56894;BME280;43392;50.078;13.704;2024-03-23T00:55:59;96214.41;;;11.98;72.41
56894;BME280;43392;50.078;13.704;2024-03-23T00:58:26;96213.13;;;11.96;72.61
56894;BME280;43392;50.078;13.704;2024-03-23T01:00:51;96208.03;;;11.94;72.35
56894;BME280;43392;50.078;13.704;2024-03-23T01:03:17;96205.97;;;11.91;72.47
56894;BME280;43392;50.078;13.704;2024-03-23T01:05:43;96202.75;;;11.89;72.29
56894;BME280;43392;50.078;13.704;2024-03-23T01:08:09;96208.13;;;11.89;72.16
56894;BME280;43392;50.078;13.704;2024-03-23T01:10:35;96202.88;;;11.84;72.26
56894;BME280;43392;50.078;13.704;2024-03-23T01:13:01;96198.31;;;11.85;72.68
56894;BME280;43392;50.078;13.704;2024-03-23T01:15:27;96192.44;;;11.83;72.59
56894;BME280;43392;50.078;13.704;2024-03-23T01:17:54;96192.44;;;11.83;72.87
56894;BME280;43392;50.078;13.704;2024-03-23T01:20:19;96194.63;;;11.81;72.82
56894;BME280;43392;50.078;13.704;2024-03-23T01:22:45;96187.66;;;11.80;73.04
56894;BME280;43392;50.078;13.704;2024-03-23T01:25:11;96185.28;;;11.78;72.87
56894;BME280;43392;50.078;13.704;2024-03-23T01:27:38;96185.28;;;11.78;72.92
56894;BME280;43392;50.078;13.704;2024-03-23T01:30:03;96177.72;;;11.80;72.56
56894;BME280;43392;50.078;13.704;2024-03-23T01:32:30;96180.41;;;11.80;72.46
56894;BME280;43392;50.078;13.704;2024-03-23T01:34:55;96174.22;;;11.80;72.34
56894;BME280;43392;50.078;13.704;2024-03-23T01:37:22;96171.06;;;11.78;72.32
56894;BME280;43392;50.078;13.704;2024-03-23T01:39:47;96170.25;;;11.77;72.33
56894;BME280;43392;50.078;13.704;2024-03-23T01:42:13;96162.50;;;11.76;72.27
56894;BME280;43392;50.078;13.704;2024-03-23T01:44:39;96154.47;;;11.76;72.37
56894;BME280;43392;50.078;13.704;2024-03-23T01:47:06;96160.13;;;11.74;72.72
56894;BME280;43392;50.078;13.704;2024-03-23T01:49:32;96153.16;;;11.73;72.55
56894;BME280;43392;50.078;13.704;2024-03-23T01:51:59;96142.72;;;11.72;72.78
56894;BME280;43392;50.078;13.704;2024-03-23T01:54:25;96131.78;;;11.68;72.74
56894;BME280;43392;50.078;13.704;2024-03-23T01:56:52;96135.56;;;11.67;72.81
56894;BME280;43392;50.078;13.704;2024-03-23T01:59:17;96126.22;;;11.65;72.93
56894;BME280;43392;50.078;13.704;2024-03-23T02:01:44;96126.50;;;11.63;73.06
56894;BME280;43392;50.078;13.704;2024-03-23T02:04:09;96117.94;;;11.61;73.18
56894;BME280;43392;50.078;13.704;2024-03-23T02:06:36;96112.09;;;11.59;73.30
56894;BME280;43392;50.078;13.704;2024-03-23T02:09:02;96099.25;;;11.56;73.33
56894;BME280;43392;50.078;13.704;2024-03-23T02:11:30;96101.47;;;11.54;73.79
56894;BME280;43392;50.078;13.704;2024-03-23T02:13:56;96108.22;;;11.52;73.74
56894;BME280;43392;50.078;13.704;2024-03-23T02:16:23;96099.69;;;11.50;73.93
56894;BME280;43392;50.078;13.704;2024-03-23T02:18:48;96103.28;;;11.45;74.10
56894;BME280;43392;50.078;13.704;2024-03-23T02:21:15;96101.19;;;11.42;74.06
56894;BME280;43392;50.078;13.704;2024-03-23T02:23:41;96099.59;;;11.41;74.29
56894;BME280;43392;50.078;13.704;2024-03-23T02:26:07;96095.63;;;11.39;74.67
56894;BME280;43392;50.078;13.704;2024-03-23T02:28:32;96084.38;;;11.37;74.58
56894;BME280;43392;50.078;13.704;2024-03-23T02:30:59;96082.63;;;11.32;74.78
56894;BME280;43392;50.078;13.704;2024-03-23T02:33:26;96079.44;;;11.30;74.74
56894;BME280;43392;50.078;13.704;2024-03-23T02:35:56;96068.81;;;11.25;74.85
56894;BME280;43392;50.078;13.704;2024-03-23T02:38:21;96069.41;;;11.22;75.12
56894;BME280;43392;50.078;13.704;2024-03-23T02:40:48;96068.59;;;11.21;74.98
56894;BME280;43392;50.078;13.704;2024-03-23T02:43:13;96058.50;;;11.18;75.14
56894;BME280;43392;50.078;13.704;2024-03-23T02:45:40;96060.97;;;11.15;75.16
56894;BME280;43392;50.078;13.704;2024-03-23T02:48:05;96056.19;;;11.12;75.54
56894;BME280;43392;50.078;13.704;2024-03-23T02:50:32;96056.00;;;11.08;75.60
56894;BME280;43392;50.078;13.704;2024-03-23T02:52:57;96053.44;;;11.03;75.77
56894;BME280;43392;50.078;13.704;2024-03-23T02:55:24;96041.09;;;11.02;76.07
56894;BME280;43392;50.078;13.704;2024-03-23T02:57:49;96045.50;;;10.98;76.06
56894;BME280;43392;50.078;13.704;2024-03-23T03:00:16;96036.94;;;10.96;76.10
56894;BME280;43392;50.078;13.704;2024-03-23T03:02:41;96028.09;;;10.96;76.22
56894;BME280;43392;50.078;13.704;2024-03-23T03:05:08;96025.25;;;10.92;76.23
56894;BME280;43392;50.078;13.704;2024-03-23T03:07:34;96017.47;;;10.91;76.32
56894;BME280;43392;50.078;13.704;2024-03-23T03:10:00;96018.88;;;10.88;76.75
56894;BME280;43392;50.078;13.704;2024-03-23T03:12:26;96011.13;;;10.87;76.54
56894;BME280;43392;50.078;13.704;2024-03-23T03:14:52;96013.81;;;10.87;76.46
56894;BME280;43392;50.078;13.704;2024-03-23T03:17:17;96012.81;;;10.83;76.79
56894;BME280;43392;50.078;13.704;2024-03-23T03:19:44;96011.56;;;10.80;76.90
56894;BME280;43392;50.078;13.704;2024-03-23T03:22:10;96007.25;;;10.79;77.01
56894;BME280;43392;50.078;13.704;2024-03-23T03:24:37;96001.09;;;10.79;77.04
56894;BME280;43392;50.078;13.704;2024-03-23T03:27:02;95999.81;;;10.76;77.16
56894;BME280;43392;50.078;13.704;2024-03-23T03:29:29;96002.81;;;10.75;77.08
56894;BME280;43392;50.078;13.704;2024-03-23T03:32:00;95993.66;;;10.76;77.27
56894;BME280;43392;50.078;13.704;2024-03-23T03:34:27;95996.63;;;10.74;77.41
56894;BME280;43392;50.078;13.704;2024-03-23T03:36:52;95984.03;;;10.75;77.58
56894;BME280;43392;50.078;13.704;2024-03-23T03:39:19;95985.31;;;10.77;77.36
56894;BME280;43392;50.078;13.704;2024-03-23T03:41:44;95968.91;;;10.79;77.36
56894;BME280;43392;50.078;13.704;2024-03-23T03:44:11;95977.47;;;10.81;77.27
56894;BME280;43392;50.078;13.704;2024-03-23T03:46:36;95969.72;;;10.79;77.21
56894;BME280;43392;50.078;13.704;2024-03-23T03:49:03;95985.31;;;10.77;77.21
56894;BME280;43392;50.078;13.704;2024-03-23T03:51:28;95979.75;;;10.74;77.41
56894;BME280;43392;50.078;13.704;2024-03-23T03:53:55;95968.84;;;10.70;77.38
56894;BME280;43392;50.078;13.704;2024-03-23T03:56:20;95976.41;;;10.68;77.65
56894;BME280;43392;50.078;13.704;2024-03-23T03:58:47;95974.00;;;10.66;77.56
56894;BME280;43392;50.078;13.704;2024-03-23T04:01:13;95969.75;;;10.65;77.62
56894;BME280;43392;50.078;13.704;2024-03-23T04:03:40;95958.50;;;10.63;77.56
56894;BME280;43392;50.078;13.704;2024-03-23T04:06:11;95966.06;;;10.61;77.67
56894;BME280;43392;50.078;13.704;2024-03-23T04:08:38;95960.22;;;10.59;77.73
56894;BME280;43392;50.078;13.704;2024-03-23T04:11:03;95958.59;;;10.58;77.76
56894;BME280;43392;50.078;13.704;2024-03-23T04:13:30;95957.53;;;10.59;77.77
56894;BME280;43392;50.078;13.704;2024-03-23T04:15:56;95951.09;;;10.60;77.77
56894;BME280;43392;50.078;13.704;2024-03-23T04:18:22;95942.72;;;10.62;77.69
56894;BME280;43392;50.078;13.704;2024-03-23T04:20:49;95938.75;;;10.59;77.78
56894;BME280;43392;50.078;13.704;2024-03-23T04:23:15;95930.13;;;10.62;77.72
56894;BME280;43392;50.078;13.704;2024-03-23T04:25:41;95922.50;;;10.56;77.72
56894;BME280;43392;50.078;13.704;2024-03-23T04:28:07;95928.53;;;10.61;77.71
56894;BME280;43392;50.078;13.704;2024-03-23T04:30:32;95928.25;;;10.63;77.72
56894;BME280;43392;50.078;13.704;2024-03-23T04:32:59;95930.31;;;10.66;77.69
56894;BME280;43392;50.078;13.704;2024-03-23T04:35:26;95929.22;;;10.67;77.70
56894;BME280;43392;50.078;13.704;2024-03-23T04:37:53;95922.47;;;10.70;77.76
56894;BME280;43392;50.078;13.704;2024-03-23T04:40:20;95917.59;;;10.72;77.63
56894;BME280;43392;50.078;13.704;2024-03-23T04:42:47;95919.69;;;10.75;77.58
56894;BME280;43392;50.078;13.704;2024-03-23T04:45:14;95917.00;;;10.75;77.62
56894;BME280;43392;50.078;13.704;2024-03-23T04:47:40;95920.16;;;10.77;77.49
56894;BME280;43392;50.078;13.704;2024-03-23T04:50:07;95917.97;;;10.79;77.41
56894;BME280;43392;50.078;13.704;2024-03-23T04:52:35;95911.81;;;10.78;77.46
56894;BME280;43392;50.078;13.704;2024-03-23T04:55:02;95910.41;;;10.81;77.34
56894;BME280;43392;50.078;13.704;2024-03-23T04:57:28;95912.00;;;10.82;77.14
56894;BME280;43392;50.078;13.704;2024-03-23T04:59:54;95907.44;;;10.82;77.01
56894;BME280;43392;50.078;13.704;2024-03-23T05:02:20;95889.44;;;10.83;76.61
56894;BME280;43392;50.078;13.704;2024-03-23T05:04:46;95885.56;;;10.89;76.43
56894;BME280;43392;50.078;13.704;2024-03-23T05:07:12;95893.31;;;10.90;76.31
56894;BME280;43392;50.078;13.704;2024-03-23T05:09:38;95888.75;;;10.91;76.02
56894;BME280;43392;50.078;13.704;2024-03-23T05:12:04;95879.28;;;10.93;75.88
56894;BME280;43392;50.078;13.704;2024-03-23T05:14:31;95878.97;;;10.95;75.53
56894;BME280;43392;50.078;13.704;2024-03-23T05:16:56;95873.63;;;10.95;75.65
56894;BME280;43392;50.078;13.704;2024-03-23T05:19:23;95878.38;;;10.98;75.54
56894;BME280;43392;50.078;13.704;2024-03-23T05:21:48;95878.38;;;10.98;75.52
56894;BME280;43392;50.078;13.704;2024-03-23T05:24:15;95878.38;;;10.98;75.54
56894;BME280;43392;50.078;13.704;2024-03-23T05:26:40;95884.53;;;10.98;75.64
56894;BME280;43392;50.078;13.704;2024-03-23T05:29:06;95869.25;;;10.99;75.62
56894;BME280;43392;50.078;13.704;2024-03-23T05:31:36;95859.59;;;10.98;75.36
56894;BME280;43392;50.078;13.704;2024-03-23T05:34:02;95860.59;;;11.02;75.25
56894;BME280;43392;50.078;13.704;2024-03-23T05:36:28;95855.72;;;11.04;75.02
56894;BME280;43392;50.078;13.704;2024-03-23T05:38:55;95848.97;;;11.06;74.83
56894;BME280;43392;50.078;13.704;2024-03-23T05:41:20;95843.47;;;11.11;74.71
56894;BME280;43392;50.078;13.704;2024-03-23T05:43:49;95837.31;;;11.11;74.79
56894;BME280;43392;50.078;13.704;2024-03-23T05:46:14;95833.50;;;11.12;74.84
56894;BME280;43392;50.078;13.704;2024-03-23T05:48:41;95828.13;;;11.12;74.85
56894;BME280;43392;50.078;13.704;2024-03-23T05:51:06;95812.19;;;11.07;75.12
56894;BME280;43392;50.078;13.704;2024-03-23T05:53:33;95817.03;;;11.05;75.35
56894;BME280;43392;50.078;13.704;2024-03-23T05:56:03;95814.69;;;11.03;75.62
56894;BME280;43392;50.078;13.704;2024-03-23T05:58:30;95811.81;;;11.00;75.73
56894;BME280;43392;50.078;13.704;2024-03-23T06:01:00;95824.72;;;10.98;75.76
56894;BME280;43392;50.078;13.704;2024-03-23T06:03:28;95812.44;;;10.97;76.00
56894;BME280;43392;50.078;13.704;2024-03-23T06:05:54;95796.81;;;10.99;76.00
56894;BME280;43392;50.078;13.704;2024-03-23T06:08:22;95787.66;;;11.00;76.08
56894;BME280;43392;50.078;13.704;2024-03-23T06:10:47;95788.66;;;11.04;76.12
56894;BME280;43392;50.078;13.704;2024-03-23T06:13:15;95780.78;;;11.07;76.07
56894;BME280;43392;50.078;13.704;2024-03-23T06:15:40;95775.13;;;11.09;76.28
56894;BME280;43392;50.078;13.704;2024-03-23T06:18:07;95777.16;;;11.12;76.09
56894;BME280;43392;50.078;13.704;2024-03-23T06:20:33;95777.69;;;11.14;76.06
56894;BME280;43392;50.078;13.704;2024-03-23T06:23:03;95779.13;;;11.20;75.38
56894;BME280;43392;50.078;13.704;2024-03-23T06:25:29;95770.94;;;11.25;75.29
56894;BME280;43392;50.078;13.704;2024-03-23T06:27:55;95760.53;;;11.32;74.70
56894;BME280;43392;50.078;13.704;2024-03-23T06:30:21;95764.38;;;11.40;74.62
56894;BME280;43392;50.078;13.704;2024-03-23T06:32:47;95757.75;;;11.46;74.45
56894;BME280;43392;50.078;13.704;2024-03-23T06:35:13;95742.50;;;11.55;74.21
56894;BME280;43392;50.078;13.704;2024-03-23T06:37:39;95735.56;;;11.62;73.80
56894;BME280;43392;50.078;13.704;2024-03-23T06:40:07;95734.47;;;11.63;73.61
56894;BME280;43392;50.078;13.704;2024-03-23T06:42:35;95734.53;;;11.72;73.03
56894;BME280;43392;50.078;13.704;2024-03-23T06:45:01;95729.16;;;11.80;72.85
56894;BME280;43392;50.078;13.704;2024-03-23T06:47:28;95726.34;;;11.85;72.51
56894;BME280;43392;50.078;13.704;2024-03-23T06:49:54;95723.50;;;11.90;72.38
56894;BME280;43392;50.078;13.704;2024-03-23T06:52:20;95713.69;;;11.94;72.10
56894;BME280;43392;50.078;13.704;2024-03-23T06:54:46;95703.78;;;12.04;71.79
56894;BME280;43392;50.078;13.704;2024-03-23T06:57:12;95703.44;;;12.14;71.22
56894;BME280;43392;50.078;13.704;2024-03-23T06:59:38;95695.56;;;12.26;70.74
56894;BME280;43392;50.078;13.704;2024-03-23T07:02:05;95701.28;;;12.33;70.24
56894;BME280;43392;50.078;13.704;2024-03-23T07:04:31;95694.94;;;12.29;70.56
56894;BME280;43392;50.078;13.704;2024-03-23T07:06:57;95703.31;;;12.27;70.28
56894;BME280;43392;50.078;13.704;2024-03-23T07:09:23;95702.84;;;12.25;70.41
56894;BME280;43392;50.078;13.704;2024-03-23T07:11:53;95704.56;;;12.38;70.22
56894;BME280;43392;50.078;13.704;2024-03-23T07:14:18;95699.19;;;12.47;69.89
56894;BME280;43392;50.078;13.704;2024-03-23T07:16:45;95688.75;;;12.54;69.55
56894;BME280;43392;50.078;13.704;2024-03-23T07:19:10;95685.44;;;12.57;69.46
56894;BME280;43392;50.078;13.704;2024-03-23T07:21:37;95674.69;;;12.57;69.39
56894;BME280;43392;50.078;13.704;2024-03-23T07:24:03;95669.78;;;12.59;69.33
56894;BME280;43392;50.078;13.704;2024-03-23T07:26:29;95666.75;;;12.60;68.96
56894;BME280;43392;50.078;13.704;2024-03-23T07:28:55;95666.41;;;12.62;69.17
56894;BME280;43392;50.078;13.704;2024-03-23T07:31:21;95658.50;;;12.65;68.55
56894;BME280;43392;50.078;13.704;2024-03-23T07:33:48;95668.31;;;12.70;68.31
56894;BME280;43392;50.078;13.704;2024-03-23T07:36:15;95655.50;;;12.76;67.99
56894;BME280;43392;50.078;13.704;2024-03-23T07:38:43;95666.03;;;12.89;67.31
56894;BME280;43392;50.078;13.704;2024-03-23T07:41:14;95659.69;;;12.94;67.22
56894;BME280;43392;50.078;13.704;2024-03-23T07:43:40;95660.00;;;13.01;66.89
56894;BME280;43392;50.078;13.704;2024-03-23T07:46:06;95638.00;;;13.07;66.88
56894;BME280;43392;50.078;13.704;2024-03-23T07:48:32;95663.44;;;13.18;66.37
56894;BME280;43392;50.078;13.704;2024-03-23T07:53:25;95651.44;;;13.45;65.86
56894;BME280;43392;50.078;13.704;2024-03-23T07:55:55;95646.94;;;13.58;65.64
56894;BME280;43392;50.078;13.704;2024-03-23T07:58:21;95651.09;;;13.76;65.80
56894;BME280;43392;50.078;13.704;2024-03-23T08:00:48;95656.72;;;13.91;65.41
56894;BME280;43392;50.078;13.704;2024-03-23T08:03:13;95652.38;;;13.99;65.37
56894;BME280;43392;50.078;13.704;2024-03-23T08:05:40;95651.47;;;13.95;65.51
56894;BME280;43392;50.078;13.704;2024-03-23T08:08:05;95646.09;;;13.95;65.50
56894;BME280;43392;50.078;13.704;2024-03-23T08:10:32;95649.31;;;14.09;65.10
56894;BME280;43392;50.078;13.704;2024-03-23T08:12:57;95652.31;;;14.28;64.22
56894;BME280;43392;50.078;13.704;2024-03-23T08:15:24;95656.91;;;14.48;64.02
56894;BME280;43392;50.078;13.704;2024-03-23T08:17:50;95649.34;;;14.63;63.80
56894;BME280;43392;50.078;13.704;2024-03-23T08:20:16;95645.75;;;14.71;63.08
56894;BME280;43392;50.078;13.704;2024-03-23T08:22:42;95639.94;;;14.81;62.47
56894;BME280;43392;50.078;13.704;2024-03-23T08:25:08;95645.69;;;14.91;62.13
56894;BME280;43392;50.078;13.704;2024-03-23T08:27:34;95646.00;;;14.78;62.67
56894;BME280;43392;50.078;13.704;2024-03-23T08:30:00;95649.00;;;14.64;62.86
56894;BME280;43392;50.078;13.704;2024-03-23T08:32:25;95657.38;;;14.50;62.59
56894;BME280;43392;50.078;13.704;2024-03-23T08:34:52;95663.50;;;14.39;62.96
56894;BME280;43392;50.078;13.704;2024-03-23T08:37:17;95643.88;;;14.30;62.87
56894;BME280;43392;50.078;13.704;2024-03-23T08:39:44;95648.41;;;14.17;62.96
56894;BME280;43392;50.078;13.704;2024-03-23T08:42:09;95647.44;;;14.01;62.53
56894;BME280;43392;50.078;13.704;2024-03-23T08:44:36;95642.63;;;13.86;61.94
56894;BME280;43392;50.078;13.704;2024-03-23T08:47:01;95635.47;;;13.69;62.13
56894;BME280;43392;50.078;13.704;2024-03-23T08:49:28;95640.91;;;13.61;63.22
56894;BME280;43392;50.078;13.704;2024-03-23T08:51:54;95661.75;;;13.43;63.97
56894;BME280;43392;50.078;13.704;2024-03-23T08:54:20;95658.31;;;13.34;65.29
56894;BME280;43392;50.078;13.704;2024-03-23T08:56:47;95675.13;;;13.22;66.07
56894;BME280;43392;50.078;13.704;2024-03-23T08:59:13;95674.25;;;13.10;66.73
56894;BME280;43392;50.078;13.704;2024-03-23T09:01:39;95673.78;;;12.99;67.35
56894;BME280;43392;50.078;13.704;2024-03-23T09:04:05;95671.59;;;12.84;67.50
56894;BME280;43392;50.078;13.704;2024-03-23T09:06:31;95684.13;;;12.72;68.24
56894;BME280;43392;50.078;13.704;2024-03-23T09:08:57;95675.63;;;12.61;68.93
56894;BME280;43392;50.078;13.704;2024-03-23T09:11:23;95687.78;;;12.50;69.71
56894;BME280;43392;50.078;13.704;2024-03-23T09:13:49;95683.06;;;12.38;70.07
56894;BME280;43392;50.078;13.704;2024-03-23T09:16:15;95657.91;;;12.26;70.32
56894;BME280;43392;50.078;13.704;2024-03-23T09:18:41;95662.81;;;12.24;70.68
56894;BME280;43392;50.078;13.704;2024-03-23T09:21:13;95667.91;;;12.25;71.04
56894;BME280;43392;50.078;13.704;2024-03-23T09:23:41;95667.91;;;12.25;71.02
56894;BME280;43392;50.078;13.704;2024-03-23T09:26:08;95668.19;;;12.24;71.19
56894;BME280;43392;50.078;13.704;2024-03-23T09:28:34;95671.38;;;12.17;71.76
56894;BME280;43392;50.078;13.704;2024-03-23T09:31:06;95667.41;;;12.23;71.29
56894;BME280;43392;50.078;13.704;2024-03-23T09:33:34;95664.72;;;12.32;70.92
56894;BME280;43392;50.078;13.704;2024-03-23T09:36:06;95665.84;;;12.39;70.99
56894;BME280;43392;50.078;13.704;2024-03-23T09:38:33;95680.38;;;12.47;71.13
56894;BME280;43392;50.078;13.704;2024-03-23T09:40:59;95683.22;;;12.50;71.21
56894;BME280;43392;50.078;13.704;2024-03-23T09:43:26;95676.41;;;12.53;71.13
56894;BME280;43392;50.078;13.704;2024-03-23T09:45:52;95681.78;;;12.61;70.83
56894;BME280;43392;50.078;13.704;2024-03-23T09:48:19;95682.38;;;12.67;71.22
56894;BME280;43392;50.078;13.704;2024-03-23T09:50:45;95699.78;;;12.70;71.25
56894;BME280;43392;50.078;13.704;2024-03-23T09:53:15;95692.69;;;12.65;71.67
56894;BME280;43392;50.078;13.704;2024-03-23T09:55:42;95697.75;;;12.58;71.55
56894;BME280;43392;50.078;13.704;2024-03-23T09:58:12;95689.38;;;12.51;71.85
56894;BME280;43392;50.078;13.704;2024-03-23T10:00:38;95698.41;;;12.46;71.68
56894;BME280;43392;50.078;13.704;2024-03-23T10:03:05;95712.94;;;12.45;71.82
56894;BME280;43392;50.078;13.704;2024-03-23T10:05:31;95717.38;;;12.41;71.61
56894;BME280;43392;50.078;13.704;2024-03-23T10:07:59;95716.75;;;12.44;71.88
56894;BME280;43392;50.078;13.704;2024-03-23T10:10:25;95734.00;;;12.52;71.64
56894;BME280;43392;50.078;13.704;2024-03-23T10:12:52;95733.19;;;12.60;71.42
56894;BME280;43392;50.078;13.704;2024-03-23T10:15:19;95737.78;;;12.68;70.55
56894;BME280;43392;50.078;13.704;2024-03-23T10:17:47;95744.88;;;12.73;70.79
56894;BME280;43392;50.078;13.704;2024-03-23T10:20:20;95751.84;;;12.74;70.04
56894;BME280;43392;50.078;13.704;2024-03-23T10:22:48;95750.75;;;12.66;70.04
56894;BME280;43392;50.078;13.704;2024-03-23T10:25:14;95772.56;;;12.64;69.60
56894;BME280;43392;50.078;13.704;2024-03-23T10:27:41;95758.81;;;12.75;68.61
56894;BME280;43392;50.078;13.704;2024-03-23T10:30:10;95770.03;;;12.85;67.82
56894;BME280;43392;50.078;13.704;2024-03-23T10:32:37;95767.03;;;12.95;66.74
56894;BME280;43392;50.078;13.704;2024-03-23T10:35:21;95772.06;;;13.05;62.32
56894;BME280;43392;50.078;13.704;2024-03-23T10:37:48;95773.19;;;13.04;61.49
56894;BME280;43392;50.078;13.704;2024-03-23T10:40:15;95767.00;;;13.04;62.02
56894;BME280;43392;50.078;13.704;2024-03-23T10:42:41;95786.97;;;13.11;60.96
56894;BME280;43392;50.078;13.704;2024-03-23T10:45:08;95780.16;;;13.05;59.03
56894;BME280;43392;50.078;13.704;2024-03-23T10:47:35;95768.28;;;13.06;59.20
56894;BME280;43392;50.078;13.704;2024-03-23T10:50:02;95788.53;;;12.87;58.94
56894;BME280;43392;50.078;13.704;2024-03-23T10:52:30;95781.59;;;12.69;58.08
56894;BME280;43392;50.078;13.704;2024-03-23T10:54:56;95784.75;;;12.62;58.10
56894;BME280;43392;50.078;13.704;2024-03-23T10:57:29;95770.69;;;12.74;57.30
56894;BME280;43392;50.078;13.704;2024-03-23T10:59:57;95763.38;;;12.91;57.22
56894;BME280;43392;50.078;13.704;2024-03-23T11:02:25;95759.59;;;13.09;56.17
56894;BME280;43392;50.078;13.704;2024-03-23T11:04:52;95774.56;;;13.27;55.09
56894;BME280;43392;50.078;13.704;2024-03-23T11:09:53;95781.59;;;13.20;54.07
56894;BME280;43392;50.078;13.704;2024-03-23T11:14:50;95782.22;;;13.00;54.01
56894;BME280;43392;50.078;13.704;2024-03-23T11:17:21;95802.47;;;12.72;53.75
56894;BME280;43392;50.078;13.704;2024-03-23T11:19:55;95807.53;;;12.47;55.05
56894;BME280;43392;50.078;13.704;2024-03-23T11:22:38;95860.25;;;12.09;57.73
56894;BME280;43392;50.078;13.704;2024-03-23T11:25:21;95879.53;;;11.50;59.68
56894;BME280;43392;50.078;13.704;2024-03-23T11:27:50;95875.81;;;10.93;61.69
56894;BME280;43392;50.078;13.704;2024-03-23T11:32:47;95894.22;;;10.23;64.17
56894;BME280;43392;50.078;13.704;2024-03-23T11:40:27;95901.34;;;10.00;64.68
56894;BME280;43392;50.078;13.704;2024-03-23T11:43:04;95890.03;;;9.76;65.66
56894;BME280;43392;50.078;13.704;2024-03-23T11:45:34;95924.41;;;9.69;65.33
56894;BME280;43392;50.078;13.704;2024-03-23T11:50:36;95910.25;;;9.82;61.88
56894;BME280;43392;50.078;13.704;2024-03-23T11:53:11;95944.38;;;9.90;60.45
56894;BME280;43392;50.078;13.704;2024-03-23T11:55:51;95945.78;;;9.87;60.13
56894;BME280;43392;50.078;13.704;2024-03-23T11:58:20;95947.75;;;9.95;60.18
56894;BME280;43392;50.078;13.704;2024-03-23T12:03:17;95935.66;;;9.98;57.60
56894;BME280;43392;50.078;13.704;2024-03-23T12:05:50;95939.94;;;9.99;55.99
56894;BME280;43392;50.078;13.704;2024-03-23T12:08:34;95951.84;;;9.93;54.61
56894;BME280;43392;50.078;13.704;2024-03-23T12:11:13;95952.84;;;9.65;54.67
56894;BME280;43392;50.078;13.704;2024-03-23T12:13:40;95981.00;;;9.62;55.73
56894;BME280;43392;50.078;13.704;2024-03-23T12:16:26;95982.78;;;9.67;56.58
56894;BME280;43392;50.078;13.704;2024-03-23T12:18:52;95984.81;;;9.75;56.24
56894;BME280;43392;50.078;13.704;2024-03-23T12:21:20;95933.94;;;9.75;55.94
56894;BME280;43392;50.078;13.704;2024-03-23T12:23:48;95963.78;;;9.82;55.79
56894;BME280;43392;50.078;13.704;2024-03-23T12:26:15;95955.41;;;10.02;55.78
56894;BME280;43392;50.078;13.704;2024-03-23T12:28:42;95966.03;;;10.07;55.59
56894;BME280;43392;50.078;13.704;2024-03-23T12:31:10;95962.06;;;10.05;55.42
56894;BME280;43392;50.078;13.704;2024-03-23T12:33:36;96006.28;;;10.02;55.55
56894;BME280;43392;50.078;13.704;2024-03-23T12:36:02;95999.81;;;9.89;55.63
56894;BME280;43392;50.078;13.704;2024-03-23T12:38:28;96000.28;;;9.78;56.13
56894;BME280;43392;50.078;13.704;2024-03-23T12:40:54;96011.78;;;9.78;56.23
56894;BME280;43392;50.078;13.704;2024-03-23T12:43:20;96020.41;;;9.75;56.26
56894;BME280;43392;50.078;13.704;2024-03-23T12:45:49;96040.91;;;9.66;56.50
56894;BME280;43392;50.078;13.704;2024-03-23T12:48:16;96045.31;;;9.57;56.31
56894;BME280;43392;50.078;13.704;2024-03-23T12:50:42;96053.41;;;9.33;56.75
56894;BME280;43392;50.078;13.704;2024-03-23T12:53:08;96071.41;;;9.09;58.04
56894;BME280;43392;50.078;13.704;2024-03-23T12:55:34;96080.53;;;8.85;60.49
56894;BME280;43392;50.078;13.704;2024-03-23T12:58:00;96087.78;;;8.55;62.79
56894;BME280;43392;50.078;13.704;2024-03-23T13:00:27;96078.66;;;8.38;63.53
56894;BME280;43392;50.078;13.704;2024-03-23T13:02:52;96087.38;;;8.15;65.08
56894;BME280;43392;50.078;13.704;2024-03-23T13:05:19;96087.50;;;7.99;66.98
56894;BME280;43392;50.078;13.704;2024-03-23T13:07:44;96086.91;;;8.08;66.87
56894;BME280;43392;50.078;13.704;2024-03-23T13:10:11;96096.13;;;8.20;66.38
56894;BME280;43392;50.078;13.704;2024-03-23T13:12:36;96095.34;;;8.20;65.94
56894;BME280;43392;50.078;13.704;2024-03-23T13:15:03;96091.06;;;8.19;66.09
56894;BME280;43392;50.078;13.704;2024-03-23T13:17:29;96106.63;;;8.12;65.41
56894;BME280;43392;50.078;13.704;2024-03-23T13:19:55;96109.88;;;8.09;64.52
56894;BME280;43392;50.078;13.704;2024-03-23T13:22:21;96111.72;;;8.08;63.79
56894;BME280;43392;50.078;13.704;2024-03-23T13:24:47;96095.16;;;8.11;63.16
56894;BME280;43392;50.078;13.704;2024-03-23T13:27:13;96085.97;;;8.22;63.16
56894;BME280;43392;50.078;13.704;2024-03-23T13:29:39;96075.44;;;8.36;63.01
56894;BME280;43392;50.078;13.704;2024-03-23T13:32:06;96092.97;;;8.47;62.43
56894;BME280;43392;50.078;13.704;2024-03-23T13:34:32;96116.81;;;8.38;61.86
56894;BME280;43392;50.078;13.704;2024-03-23T13:36:58;96115.56;;;8.31;62.18
56894;BME280;43392;50.078;13.704;2024-03-23T13:39:25;96130.56;;;8.22;61.90
56894;BME280;43392;50.078;13.704;2024-03-23T13:41:52;96139.72;;;8.16;61.44
56894;BME280;43392;50.078;13.704;2024-03-23T13:44:19;96122.34;;;8.18;61.25
56894;BME280;43392;50.078;13.704;2024-03-23T13:46:45;96129.75;;;8.21;61.38
56894;BME280;43392;50.078;13.704;2024-03-23T13:49:32;96136.97;;;8.26;60.82
56894;BME280;43392;50.078;13.704;2024-03-23T13:51:58;96119.63;;;8.23;60.27
56894;BME280;43392;50.078;13.704;2024-03-23T13:54:28;96115.38;;;8.17;60.12
56894;BME280;43392;50.078;13.704;2024-03-23T13:56:56;96135.41;;;8.20;59.66
56894;BME280;43392;50.078;13.704;2024-03-23T13:59:23;96143.91;;;8.27;59.78
56894;BME280;43392;50.078;13.704;2024-03-23T14:01:49;96140.19;;;8.28;59.77
56894;BME280;43392;50.078;13.704;2024-03-23T14:04:17;96120.38;;;8.29;59.52